sensor_id;sensor_type;location;lat;lon;timestamp;temperature;humidity
33717;DHT22;20046;50.746;7.072;2023-07-24T00:00:26;17.90;99.90
33717;DHT22;20046;50.746;7.072;2023-07-24T00:02:52;17.90;99.90
33717;DHT22;20046;50.746;7.072;2023-07-24T00:05:19;17.90;99.90
33717;DHT22;20046;50.746;7.072;2023-07-24T00:07:44;17.90;99.90
33717;DHT22;20046;50.746;7.072;2023-07-24T00:10:10;17.80;99.90
33717;DHT22;20046;50.746;7.072;2023-07-24T00:12:36;17.90;99.90
33717;DHT22;20046;50.746;7.072;2023-07-24T00:15:01;17.80;99.90
33717;DHT22;20046;50.746;7.072;2023-07-24T00:17:27;17.80;99.90
33717;DHT22;20046;50.746;7.072;2023-07-24T00:19:53;17.80;99.90
33717;DHT22;20046;50.746;7.072;2023-07-24T00:22:18;17.80;99.90
33717;DHT22;20046;50.746;7.072;2023-07-24T00:24:44;17.70;99.90
33717;DHT22;20046;50.746;7.072;2023-07-24T00:27:09;17.70;99.90
33717;DHT22;20046;50.746;7.072;2023-07-24T00:29:35;17.70;99.90
33717;DHT22;20046;50.746;7.072;2023-07-24T00:32:00;17.60;99.90
33717;DHT22;20046;50.746;7.072;2023-07-24T00:34:26;17.60;99.90
33717;DHT22;20046;50.746;7.072;2023-07-24T00:36:52;17.60;99.90
33717;DHT22;20046;50.746;7.072;2023-07-24T00:39:17;17.60;99.90
33717;DHT22;20046;50.746;7.072;2023-07-24T00:41:43;17.50;99.90
33717;DHT22;20046;50.746;7.072;2023-07-24T00:44:09;17.50;99.90
33717;DHT22;20046;50.746;7.072;2023-07-24T00:46:35;17.50;99.90
33717;DHT22;20046;50.746;7.072;2023-07-24T00:49:02;17.50;99.90
33717;DHT22;20046;50.746;7.072;2023-07-24T00:51:30;17.50;99.90
33717;DHT22;20046;50.746;7.072;2023-07-24T00:54:01;17.50;99.90
33717;DHT22;20046;50.746;7.072;2023-07-24T00:56:31;17.50;99.90
33717;DHT22;20046;50.746;7.072;2023-07-24T00:58:57;17.60;99.90
33717;DHT22;20046;50.746;7.072;2023-07-24T01:01:24;17.60;99.90
33717;DHT22;20046;50.746;7.072;2023-07-24T01:03:51;17.50;99.90
33717;DHT22;20046;50.746;7.072;2023-07-24T01:06:17;17.60;99.90
33717;DHT22;20046;50.746;7.072;2023-07-24T01:08:43;17.60;99.90
33717;DHT22;20046;50.746;7.072;2023-07-24T01:11:16;17.60;99.90
33717;DHT22;20046;50.746;7.072;2023-07-24T01:13:51;17.60;99.90
33717;DHT22;20046;50.746;7.072;2023-07-24T01:16:21;17.70;99.90
33717;DHT22;20046;50.746;7.072;2023-07-24T01:18:51;17.80;99.90
33717;DHT22;20046;50.746;7.072;2023-07-24T01:21:20;17.80;99.90
33717;DHT22;20046;50.746;7.072;2023-07-24T01:26:21;17.90;99.90
33717;DHT22;20046;50.746;7.072;2023-07-24T01:28:49;18.00;99.90
33717;DHT22;20046;50.746;7.072;2023-07-24T01:31:15;18.00;99.90
33717;DHT22;20046;50.746;7.072;2023-07-24T01:33:42;18.00;99.90
33717;DHT22;20046;50.746;7.072;2023-07-24T01:36:08;18.00;99.90
33717;DHT22;20046;50.746;7.072;2023-07-24T01:38:35;18.00;99.90
33717;DHT22;20046;50.746;7.072;2023-07-24T01:41:02;18.00;99.90
33717;DHT22;20046;50.746;7.072;2023-07-24T01:43:29;18.00;99.90
33717;DHT22;20046;50.746;7.072;2023-07-24T01:45:55;18.00;99.90
33717;DHT22;20046;50.746;7.072;2023-07-24T01:48:21;18.00;99.90
33717;DHT22;20046;50.746;7.072;2023-07-24T01:50:47;18.00;99.90
33717;DHT22;20046;50.746;7.072;2023-07-24T01:53:13;18.00;99.90
33717;DHT22;20046;50.746;7.072;2023-07-24T01:55:38;18.00;99.90
33717;DHT22;20046;50.746;7.072;2023-07-24T01:58:04;18.00;99.90
33717;DHT22;20046;50.746;7.072;2023-07-24T02:00:30;18.00;99.90
33717;DHT22;20046;50.746;7.072;2023-07-24T02:02:55;18.00;99.90
33717;DHT22;20046;50.746;7.072;2023-07-24T02:05:22;18.10;99.90
33717;DHT22;20046;50.746;7.072;2023-07-24T02:07:47;18.10;99.90
33717;DHT22;20046;50.746;7.072;2023-07-24T02:10:13;18.20;99.90
33717;DHT22;20046;50.746;7.072;2023-07-24T02:12:39;18.20;99.90
33717;DHT22;20046;50.746;7.072;2023-07-24T02:15:05;18.30;99.90
33717;DHT22;20046;50.746;7.072;2023-07-24T02:17:31;18.30;99.90
33717;DHT22;20046;50.746;7.072;2023-07-24T02:19:57;18.40;99.90
33717;DHT22;20046;50.746;7.072;2023-07-24T02:22:22;18.40;99.90
33717;DHT22;20046;50.746;7.072;2023-07-24T02:24:48;18.40;99.90
33717;DHT22;20046;50.746;7.072;2023-07-24T02:27:24;18.50;99.90
33717;DHT22;20046;50.746;7.072;2023-07-24T02:29:49;18.40;99.90
33717;DHT22;20046;50.746;7.072;2023-07-24T02:32:15;18.40;99.90
33717;DHT22;20046;50.746;7.072;2023-07-24T02:34:40;18.30;99.90
33717;DHT22;20046;50.746;7.072;2023-07-24T02:37:06;18.30;99.90
33717;DHT22;20046;50.746;7.072;2023-07-24T02:39:31;18.20;99.90
33717;DHT22;20046;50.746;7.072;2023-07-24T02:41:57;18.20;99.90
33717;DHT22;20046;50.746;7.072;2023-07-24T02:44:22;18.20;99.90
33717;DHT22;20046;50.746;7.072;2023-07-24T02:46:48;18.20;99.90
33717;DHT22;20046;50.746;7.072;2023-07-24T02:49:14;18.20;99.90
33717;DHT22;20046;50.746;7.072;2023-07-24T02:51:39;18.20;99.90
33717;DHT22;20046;50.746;7.072;2023-07-24T02:54:05;18.30;99.90
33717;DHT22;20046;50.746;7.072;2023-07-24T02:56:31;18.30;99.90
33717;DHT22;20046;50.746;7.072;2023-07-24T02:58:57;18.20;99.90
33717;DHT22;20046;50.746;7.072;2023-07-24T03:01:22;18.20;99.90
33717;DHT22;20046;50.746;7.072;2023-07-24T03:03:48;18.20;99.90
33717;DHT22;20046;50.746;7.072;2023-07-24T03:06:15;18.20;99.90
33717;DHT22;20046;50.746;7.072;2023-07-24T03:08:40;18.20;99.90
33717;DHT22;20046;50.746;7.072;2023-07-24T03:11:07;18.10;99.90
33717;DHT22;20046;50.746;7.072;2023-07-24T03:13:32;18.10;99.90
33717;DHT22;20046;50.746;7.072;2023-07-24T03:15:58;18.10;99.90
33717;DHT22;20046;50.746;7.072;2023-07-24T03:18:24;18.00;99.90
33717;DHT22;20046;50.746;7.072;2023-07-24T03:20:50;18.00;99.90
33717;DHT22;20046;50.746;7.072;2023-07-24T03:23:16;18.00;99.90
33717;DHT22;20046;50.746;7.072;2023-07-24T03:25:41;18.00;99.90
33717;DHT22;20046;50.746;7.072;2023-07-24T03:28:07;18.00;99.90
33717;DHT22;20046;50.746;7.072;2023-07-24T03:30:33;18.10;99.90
33717;DHT22;20046;50.746;7.072;2023-07-24T03:32:58;18.10;99.90
33717;DHT22;20046;50.746;7.072;2023-07-24T03:35:24;18.10;99.90
33717;DHT22;20046;50.746;7.072;2023-07-24T03:37:49;18.10;99.90
33717;DHT22;20046;50.746;7.072;2023-07-24T03:40:15;18.10;99.90
33717;DHT22;20046;50.746;7.072;2023-07-24T03:42:41;18.00;99.90
33717;DHT22;20046;50.746;7.072;2023-07-24T03:45:07;18.00;99.90
33717;DHT22;20046;50.746;7.072;2023-07-24T03:47:33;18.10;99.90
33717;DHT22;20046;50.746;7.072;2023-07-24T03:49:59;18.00;99.90
33717;DHT22;20046;50.746;7.072;2023-07-24T03:52:24;18.00;99.90
33717;DHT22;20046;50.746;7.072;2023-07-24T03:54:51;18.00;99.90
33717;DHT22;20046;50.746;7.072;2023-07-24T03:57:17;18.00;99.90
33717;DHT22;20046;50.746;7.072;2023-07-24T03:59:43;18.10;99.90
33717;DHT22;20046;50.746;7.072;2023-07-24T04:02:09;18.10;99.90
33717;DHT22;20046;50.746;7.072;2023-07-24T04:04:34;18.10;99.90
33717;DHT22;20046;50.746;7.072;2023-07-24T04:07:00;18.10;99.90
33717;DHT22;20046;50.746;7.072;2023-07-24T04:09:26;18.10;99.90
33717;DHT22;20046;50.746;7.072;2023-07-24T04:11:52;18.10;99.90
33717;DHT22;20046;50.746;7.072;2023-07-24T04:14:17;18.20;99.90
33717;DHT22;20046;50.746;7.072;2023-07-24T04:16:43;18.20;99.90
33717;DHT22;20046;50.746;7.072;2023-07-24T04:19:09;18.20;99.90
33717;DHT22;20046;50.746;7.072;2023-07-24T04:21:34;18.20;99.90
33717;DHT22;20046;50.746;7.072;2023-07-24T04:24:00;18.20;99.90
33717;DHT22;20046;50.746;7.072;2023-07-24T04:26:25;18.20;99.90
33717;DHT22;20046;50.746;7.072;2023-07-24T04:28:51;18.20;99.90
33717;DHT22;20046;50.746;7.072;2023-07-24T04:31:16;18.20;99.90
33717;DHT22;20046;50.746;7.072;2023-07-24T04:33:42;18.30;99.90
33717;DHT22;20046;50.746;7.072;2023-07-24T04:36:07;18.30;99.90
33717;DHT22;20046;50.746;7.072;2023-07-24T04:38:33;18.30;99.90
33717;DHT22;20046;50.746;7.072;2023-07-24T04:41:01;18.30;99.90
33717;DHT22;20046;50.746;7.072;2023-07-24T04:43:28;18.30;99.90
33717;DHT22;20046;50.746;7.072;2023-07-24T04:45:54;18.30;99.90
33717;DHT22;20046;50.746;7.072;2023-07-24T04:48:19;18.40;99.90
33717;DHT22;20046;50.746;7.072;2023-07-24T04:50:45;18.40;99.90
33717;DHT22;20046;50.746;7.072;2023-07-24T04:53:11;18.40;99.90
33717;DHT22;20046;50.746;7.072;2023-07-24T04:55:36;18.40;99.90
33717;DHT22;20046;50.746;7.072;2023-07-24T04:58:02;18.50;99.90
33717;DHT22;20046;50.746;7.072;2023-07-24T05:00:27;18.50;99.90
33717;DHT22;20046;50.746;7.072;2023-07-24T05:02:53;18.50;99.90
33717;DHT22;20046;50.746;7.072;2023-07-24T05:05:18;18.50;99.90
33717;DHT22;20046;50.746;7.072;2023-07-24T05:07:44;18.50;99.90
33717;DHT22;20046;50.746;7.072;2023-07-24T05:10:10;18.50;99.90
33717;DHT22;20046;50.746;7.072;2023-07-24T05:12:35;18.50;99.90
33717;DHT22;20046;50.746;7.072;2023-07-24T05:15:01;18.50;99.90
33717;DHT22;20046;50.746;7.072;2023-07-24T05:17:26;18.50;99.90
33717;DHT22;20046;50.746;7.072;2023-07-24T05:19:52;18.60;99.90
33717;DHT22;20046;50.746;7.072;2023-07-24T05:22:17;18.70;99.90
33717;DHT22;20046;50.746;7.072;2023-07-24T05:24:43;18.80;99.90
33717;DHT22;20046;50.746;7.072;2023-07-24T05:27:08;19.00;99.90
33717;DHT22;20046;50.746;7.072;2023-07-24T05:29:34;19.30;99.90
33717;DHT22;20046;50.746;7.072;2023-07-24T05:31:59;19.50;99.90
33717;DHT22;20046;50.746;7.072;2023-07-24T05:34:25;19.70;99.90
33717;DHT22;20046;50.746;7.072;2023-07-24T05:36:51;19.90;99.90
33717;DHT22;20046;50.746;7.072;2023-07-24T05:39:17;20.10;99.90
33717;DHT22;20046;50.746;7.072;2023-07-24T05:41:42;20.40;99.90
33717;DHT22;20046;50.746;7.072;2023-07-24T05:44:08;20.60;99.90
33717;DHT22;20046;50.746;7.072;2023-07-24T05:46:34;20.90;99.90
33717;DHT22;20046;50.746;7.072;2023-07-24T05:49:00;21.00;99.90
33717;DHT22;20046;50.746;7.072;2023-07-24T05:51:29;21.20;99.90
33717;DHT22;20046;50.746;7.072;2023-07-24T05:53:54;21.10;99.90
33717;DHT22;20046;50.746;7.072;2023-07-24T05:56:20;21.00;99.90
33717;DHT22;20046;50.746;7.072;2023-07-24T05:58:45;20.90;99.90
33717;DHT22;20046;50.746;7.072;2023-07-24T06:01:11;20.70;99.90
33717;DHT22;20046;50.746;7.072;2023-07-24T06:03:37;20.70;99.90
33717;DHT22;20046;50.746;7.072;2023-07-24T06:06:04;20.60;99.90
33717;DHT22;20046;50.746;7.072;2023-07-24T06:08:30;20.60;99.90
33717;DHT22;20046;50.746;7.072;2023-07-24T06:10:55;20.60;99.90
33717;DHT22;20046;50.746;7.072;2023-07-24T06:13:21;20.60;99.90
33717;DHT22;20046;50.746;7.072;2023-07-24T06:15:47;20.70;99.90
33717;DHT22;20046;50.746;7.072;2023-07-24T06:18:14;20.80;99.90
33717;DHT22;20046;50.746;7.072;2023-07-24T06:20:39;20.90;99.90
33717;DHT22;20046;50.746;7.072;2023-07-24T06:23:05;20.90;99.90
33717;DHT22;20046;50.746;7.072;2023-07-24T06:25:31;21.10;99.90
33717;DHT22;20046;50.746;7.072;2023-07-24T06:27:57;21.20;99.90
33717;DHT22;20046;50.746;7.072;2023-07-24T06:30:23;21.30;99.90
33717;DHT22;20046;50.746;7.072;2023-07-24T06:32:48;21.40;99.90
33717;DHT22;20046;50.746;7.072;2023-07-24T06:35:14;21.50;99.90
33717;DHT22;20046;50.746;7.072;2023-07-24T06:37:40;21.60;99.90
33717;DHT22;20046;50.746;7.072;2023-07-24T06:40:07;21.60;99.90
33717;DHT22;20046;50.746;7.072;2023-07-24T06:42:32;21.60;99.90
33717;DHT22;20046;50.746;7.072;2023-07-24T06:44:58;21.60;99.90
33717;DHT22;20046;50.746;7.072;2023-07-24T06:47:24;21.50;99.90
33717;DHT22;20046;50.746;7.072;2023-07-24T06:49:50;21.50;99.90
33717;DHT22;20046;50.746;7.072;2023-07-24T06:52:15;21.50;99.90
33717;DHT22;20046;50.746;7.072;2023-07-24T06:54:41;21.50;99.90
33717;DHT22;20046;50.746;7.072;2023-07-24T06:57:07;21.40;99.90
33717;DHT22;20046;50.746;7.072;2023-07-24T06:59:33;21.40;99.90
33717;DHT22;20046;50.746;7.072;2023-07-24T07:01:58;21.40;99.90
33717;DHT22;20046;50.746;7.072;2023-07-24T07:04:24;21.40;99.90
33717;DHT22;20046;50.746;7.072;2023-07-24T07:06:49;21.40;99.90
33717;DHT22;20046;50.746;7.072;2023-07-24T07:09:15;21.40;99.90
33717;DHT22;20046;50.746;7.072;2023-07-24T07:11:40;21.50;99.90
33717;DHT22;20046;50.746;7.072;2023-07-24T07:14:08;21.50;99.90
33717;DHT22;20046;50.746;7.072;2023-07-24T07:16:34;21.60;99.90
33717;DHT22;20046;50.746;7.072;2023-07-24T07:19:00;21.60;99.90
33717;DHT22;20046;50.746;7.072;2023-07-24T07:21:25;21.70;99.90
33717;DHT22;20046;50.746;7.072;2023-07-24T07:23:51;21.80;99.90
33717;DHT22;20046;50.746;7.072;2023-07-24T07:26:17;21.90;99.90
33717;DHT22;20046;50.746;7.072;2023-07-24T07:28:42;22.00;99.90
33717;DHT22;20046;50.746;7.072;2023-07-24T07:31:10;22.10;99.90
33717;DHT22;20046;50.746;7.072;2023-07-24T07:33:35;22.20;99.90
33717;DHT22;20046;50.746;7.072;2023-07-24T07:36:01;22.20;99.90
33717;DHT22;20046;50.746;7.072;2023-07-24T07:38:27;22.20;99.90
33717;DHT22;20046;50.746;7.072;2023-07-24T07:40:53;22.10;99.90
33717;DHT22;20046;50.746;7.072;2023-07-24T07:43:18;22.00;99.90
33717;DHT22;20046;50.746;7.072;2023-07-24T07:45:44;21.90;99.90
33717;DHT22;20046;50.746;7.072;2023-07-24T07:48:09;21.90;99.90
33717;DHT22;20046;50.746;7.072;2023-07-24T07:50:35;21.80;99.90
33717;DHT22;20046;50.746;7.072;2023-07-24T07:53:01;21.70;99.90
33717;DHT22;20046;50.746;7.072;2023-07-24T07:55:26;21.70;99.90
33717;DHT22;20046;50.746;7.072;2023-07-24T07:57:52;21.70;99.90
33717;DHT22;20046;50.746;7.072;2023-07-24T08:00:17;21.70;99.90
33717;DHT22;20046;50.746;7.072;2023-07-24T08:02:43;21.90;99.90
33717;DHT22;20046;50.746;7.072;2023-07-24T08:05:10;22.00;99.90
33717;DHT22;20046;50.746;7.072;2023-07-24T08:07:36;22.20;99.90
33717;DHT22;20046;50.746;7.072;2023-07-24T08:10:02;22.30;99.90
33717;DHT22;20046;50.746;7.072;2023-07-24T08:12:28;22.50;99.90
33717;DHT22;20046;50.746;7.072;2023-07-24T08:14:54;22.50;99.90
33717;DHT22;20046;50.746;7.072;2023-07-24T08:17:19;22.50;99.90
33717;DHT22;20046;50.746;7.072;2023-07-24T08:19:45;22.50;99.90
33717;DHT22;20046;50.746;7.072;2023-07-24T08:22:11;22.50;99.90
33717;DHT22;20046;50.746;7.072;2023-07-24T08:24:37;22.50;99.90
33717;DHT22;20046;50.746;7.072;2023-07-24T08:27:02;22.40;99.90
33717;DHT22;20046;50.746;7.072;2023-07-24T08:29:28;22.40;99.90
33717;DHT22;20046;50.746;7.072;2023-07-24T08:31:54;22.40;99.90
33717;DHT22;20046;50.746;7.072;2023-07-24T08:34:20;22.40;99.90
33717;DHT22;20046;50.746;7.072;2023-07-24T08:36:45;22.60;99.90
33717;DHT22;20046;50.746;7.072;2023-07-24T08:39:12;23.20;99.90
33717;DHT22;20046;50.746;7.072;2023-07-24T08:41:37;23.90;99.90
33717;DHT22;20046;50.746;7.072;2023-07-24T08:44:12;24.60;99.90
33717;DHT22;20046;50.746;7.072;2023-07-24T08:46:39;25.70;99.90
33717;DHT22;20046;50.746;7.072;2023-07-24T08:49:13;25.90;99.90
33717;DHT22;20046;50.746;7.072;2023-07-24T08:51:40;25.90;99.90
33717;DHT22;20046;50.746;7.072;2023-07-24T08:54:06;26.00;99.90
33717;DHT22;20046;50.746;7.072;2023-07-24T08:56:33;26.50;99.90
33717;DHT22;20046;50.746;7.072;2023-07-24T08:58:58;26.40;99.90
33717;DHT22;20046;50.746;7.072;2023-07-24T09:01:24;26.00;99.90
33717;DHT22;20046;50.746;7.072;2023-07-24T09:03:50;25.40;99.90
33717;DHT22;20046;50.746;7.072;2023-07-24T09:06:16;25.10;99.90
33717;DHT22;20046;50.746;7.072;2023-07-24T09:08:42;24.80;99.90
33717;DHT22;20046;50.746;7.072;2023-07-24T09:11:09;24.60;99.90
33717;DHT22;20046;50.746;7.072;2023-07-24T09:13:37;24.20;99.90
33717;DHT22;20046;50.746;7.072;2023-07-24T09:16:03;23.90;99.90
33717;DHT22;20046;50.746;7.072;2023-07-24T09:18:42;23.60;99.90
33717;DHT22;20046;50.746;7.072;2023-07-24T09:21:09;23.40;99.90
33717;DHT22;20046;50.746;7.072;2023-07-24T09:23:35;23.30;99.90
33717;DHT22;20046;50.746;7.072;2023-07-24T09:26:05;23.30;99.90
33717;DHT22;20046;50.746;7.072;2023-07-24T09:28:33;23.30;99.90
33717;DHT22;20046;50.746;7.072;2023-07-24T09:30:59;23.50;99.90
33717;DHT22;20046;50.746;7.072;2023-07-24T09:33:39;23.60;99.90
33717;DHT22;20046;50.746;7.072;2023-07-24T09:36:06;23.60;99.90
33717;DHT22;20046;50.746;7.072;2023-07-24T09:38:38;23.70;99.90
33717;DHT22;20046;50.746;7.072;2023-07-24T09:41:04;23.80;99.90
33717;DHT22;20046;50.746;7.072;2023-07-24T09:43:31;24.00;99.90
33717;DHT22;20046;50.746;7.072;2023-07-24T09:45:57;24.20;99.90
33717;DHT22;20046;50.746;7.072;2023-07-24T09:48:25;24.50;99.90
33717;DHT22;20046;50.746;7.072;2023-07-24T09:50:56;24.60;99.90
33717;DHT22;20046;50.746;7.072;2023-07-24T09:53:42;24.70;99.90
33717;DHT22;20046;50.746;7.072;2023-07-24T09:56:09;24.70;99.90
33717;DHT22;20046;50.746;7.072;2023-07-24T09:58:37;24.60;99.90
33717;DHT22;20046;50.746;7.072;2023-07-24T10:01:04;24.70;99.90
33717;DHT22;20046;50.746;7.072;2023-07-24T10:03:35;24.80;99.90
33717;DHT22;20046;50.746;7.072;2023-07-24T10:06:01;24.90;99.90
33717;DHT22;20046;50.746;7.072;2023-07-24T10:08:27;25.00;99.90
33717;DHT22;20046;50.746;7.072;2023-07-24T10:10:53;25.10;99.90
33717;DHT22;20046;50.746;7.072;2023-07-24T10:13:21;25.00;99.90
33717;DHT22;20046;50.746;7.072;2023-07-24T10:15:47;24.80;99.90
33717;DHT22;20046;50.746;7.072;2023-07-24T10:18:15;24.70;99.90
33717;DHT22;20046;50.746;7.072;2023-07-24T10:20:42;25.30;99.90
33717;DHT22;20046;50.746;7.072;2023-07-24T10:23:15;26.20;99.90
33717;DHT22;20046;50.746;7.072;2023-07-24T10:25:44;27.20;99.90
33717;DHT22;20046;50.746;7.072;2023-07-24T10:28:11;27.40;99.90
33717;DHT22;20046;50.746;7.072;2023-07-24T10:30:38;27.40;99.60
33717;DHT22;20046;50.746;7.072;2023-07-24T10:33:18;27.40;99.40
33717;DHT22;20046;50.746;7.072;2023-07-24T10:35:45;27.90;99.20
33717;DHT22;20046;50.746;7.072;2023-07-24T10:38:16;27.80;98.60
33717;DHT22;20046;50.746;7.072;2023-07-24T10:40:44;27.50;98.00
33717;DHT22;20046;50.746;7.072;2023-07-24T10:43:12;27.10;98.40
33717;DHT22;20046;50.746;7.072;2023-07-24T10:45:46;26.80;99.10
33717;DHT22;20046;50.746;7.072;2023-07-24T10:48:13;26.50;99.40
33717;DHT22;20046;50.746;7.072;2023-07-24T10:50:40;26.00;99.20
33717;DHT22;20046;50.746;7.072;2023-07-24T10:53:06;25.60;99.90
33717;DHT22;20046;50.746;7.072;2023-07-24T10:55:32;25.40;99.90
33717;DHT22;20046;50.746;7.072;2023-07-24T10:57:57;25.30;99.90
33717;DHT22;20046;50.746;7.072;2023-07-24T11:00:23;25.10;99.90
33717;DHT22;20046;50.746;7.072;2023-07-24T11:02:49;25.10;99.90
33717;DHT22;20046;50.746;7.072;2023-07-24T11:05:17;25.40;99.90
33717;DHT22;20046;50.746;7.072;2023-07-24T11:07:44;26.10;99.90
33717;DHT22;20046;50.746;7.072;2023-07-24T11:10:18;26.50;99.10
33717;DHT22;20046;50.746;7.072;2023-07-24T11:12:43;26.30;98.80
33717;DHT22;20046;50.746;7.072;2023-07-24T11:15:10;26.00;98.80
33717;DHT22;20046;50.746;7.072;2023-07-24T11:17:37;25.60;99.20
33717;DHT22;20046;50.746;7.072;2023-07-24T11:20:14;25.40;99.60
33717;DHT22;20046;50.746;7.072;2023-07-24T11:22:41;25.40;99.80
33717;DHT22;20046;50.746;7.072;2023-07-24T11:25:08;25.80;99.50
33717;DHT22;20046;50.746;7.072;2023-07-24T11:27:41;26.60;98.80
33717;DHT22;20046;50.746;7.072;2023-07-24T11:30:12;26.50;98.30
33717;DHT22;20046;50.746;7.072;2023-07-24T11:32:41;26.30;98.30
33717;DHT22;20046;50.746;7.072;2023-07-24T11:35:07;26.90;98.00
33717;DHT22;20046;50.746;7.072;2023-07-24T11:37:34;27.30;97.40
33717;DHT22;20046;50.746;7.072;2023-07-24T11:40:01;27.50;97.00
33717;DHT22;20046;50.746;7.072;2023-07-24T11:42:39;27.20;97.20
33717;DHT22;20046;50.746;7.072;2023-07-24T11:45:06;26.40;97.10
33717;DHT22;20046;50.746;7.072;2023-07-24T11:47:44;26.00;97.70
33717;DHT22;20046;50.746;7.072;2023-07-24T11:50:10;25.90;98.20
33717;DHT22;20046;50.746;7.072;2023-07-24T11:52:44;26.60;97.80
33717;DHT22;20046;50.746;7.072;2023-07-24T11:55:11;26.60;97.30
33717;DHT22;20046;50.746;7.072;2023-07-24T11:57:37;26.40;97.70
33717;DHT22;20046;50.746;7.072;2023-07-24T12:00:04;26.20;98.10
33717;DHT22;20046;50.746;7.072;2023-07-24T12:02:32;25.20;99.90
33717;DHT22;20046;50.746;7.072;2023-07-24T12:04:59;24.70;99.90
33717;DHT22;20046;50.746;7.072;2023-07-24T12:07:35;24.50;99.90
33717;DHT22;20046;50.746;7.072;2023-07-24T12:10:05;24.30;99.90
33717;DHT22;20046;50.746;7.072;2023-07-24T12:12:48;24.40;99.90
33717;DHT22;20046;50.746;7.072;2023-07-24T12:15:14;24.50;99.90
33717;DHT22;20046;50.746;7.072;2023-07-24T12:17:40;24.40;99.90
33717;DHT22;20046;50.746;7.072;2023-07-24T12:20:07;24.20;99.90
33717;DHT22;20046;50.746;7.072;2023-07-24T12:22:35;24.00;99.90
33717;DHT22;20046;50.746;7.072;2023-07-24T12:25:02;23.80;99.90
33717;DHT22;20046;50.746;7.072;2023-07-24T12:27:27;22.70;99.90
33717;DHT22;20046;50.746;7.072;2023-07-24T12:29:53;22.00;99.90
33717;DHT22;20046;50.746;7.072;2023-07-24T12:32:19;21.50;99.90
33717;DHT22;20046;50.746;7.072;2023-07-24T12:34:50;21.30;99.90
33717;DHT22;20046;50.746;7.072;2023-07-24T12:37:16;21.10;99.90
33717;DHT22;20046;50.746;7.072;2023-07-24T12:39:42;21.10;99.90
33717;DHT22;20046;50.746;7.072;2023-07-24T12:42:08;21.20;99.90
33717;DHT22;20046;50.746;7.072;2023-07-24T12:44:33;22.50;99.90
33717;DHT22;20046;50.746;7.072;2023-07-24T12:46:59;25.30;99.90
33717;DHT22;20046;50.746;7.072;2023-07-24T12:49:24;27.20;99.90
33717;DHT22;20046;50.746;7.072;2023-07-24T12:51:50;29.30;99.90
33717;DHT22;20046;50.746;7.072;2023-07-24T12:54:16;31.70;99.90
33717;DHT22;20046;50.746;7.072;2023-07-24T12:56:42;33.60;99.90
33717;DHT22;20046;50.746;7.072;2023-07-24T12:59:08;34.70;96.90
33717;DHT22;20046;50.746;7.072;2023-07-24T13:01:33;34.90;95.00
33717;DHT22;20046;50.746;7.072;2023-07-24T13:03:59;33.70;94.90
33717;DHT22;20046;50.746;7.072;2023-07-24T13:06:25;33.60;94.50
33717;DHT22;20046;50.746;7.072;2023-07-24T13:08:50;32.40;94.90
33717;DHT22;20046;50.746;7.072;2023-07-24T13:11:16;32.40;95.50
33717;DHT22;20046;50.746;7.072;2023-07-24T13:13:41;31.30;96.30
33717;DHT22;20046;50.746;7.072;2023-07-24T13:16:07;30.10;96.40
33717;DHT22;20046;50.746;7.072;2023-07-24T13:18:32;31.30;96.70
33717;DHT22;20046;50.746;7.072;2023-07-24T13:20:58;32.80;96.20
33717;DHT22;20046;50.746;7.072;2023-07-24T13:23:24;34.20;93.60
33717;DHT22;20046;50.746;7.072;2023-07-24T13:25:54;35.40;90.50
33717;DHT22;20046;50.746;7.072;2023-07-24T13:28:20;36.00;87.50
33717;DHT22;20046;50.746;7.072;2023-07-24T13:30:46;36.80;83.20
33717;DHT22;20046;50.746;7.072;2023-07-24T13:33:12;36.50;82.60
33717;DHT22;20046;50.746;7.072;2023-07-24T13:35:37;33.90;85.80
33717;DHT22;20046;50.746;7.072;2023-07-24T13:38:03;31.60;87.90
33717;DHT22;20046;50.746;7.072;2023-07-24T13:40:29;29.80;90.80
33717;DHT22;20046;50.746;7.072;2023-07-24T13:42:54;28.10;92.50
33717;DHT22;20046;50.746;7.072;2023-07-24T13:45:20;26.80;94.50
33717;DHT22;20046;50.746;7.072;2023-07-24T13:47:45;25.70;95.50
33717;DHT22;20046;50.746;7.072;2023-07-24T13:50:11;25.00;96.90
33717;DHT22;20046;50.746;7.072;2023-07-24T13:52:37;24.30;98.20
33717;DHT22;20046;50.746;7.072;2023-07-24T13:55:03;23.80;99.90
33717;DHT22;20046;50.746;7.072;2023-07-24T13:57:28;23.40;99.90
33717;DHT22;20046;50.746;7.072;2023-07-24T13:59:54;23.10;99.90
33717;DHT22;20046;50.746;7.072;2023-07-24T14:02:19;23.00;99.90
33717;DHT22;20046;50.746;7.072;2023-07-24T14:04:45;22.80;99.90
33717;DHT22;20046;50.746;7.072;2023-07-24T14:07:10;22.90;99.90
33717;DHT22;20046;50.746;7.072;2023-07-24T14:09:38;23.40;99.90
33717;DHT22;20046;50.746;7.072;2023-07-24T14:12:04;24.00;99.90
33717;DHT22;20046;50.746;7.072;2023-07-24T14:14:30;24.20;99.90
33717;DHT22;20046;50.746;7.072;2023-07-24T14:16:56;23.70;99.90
33717;DHT22;20046;50.746;7.072;2023-07-24T14:19:22;23.30;99.90
33717;DHT22;20046;50.746;7.072;2023-07-24T14:21:51;22.30;99.90
33717;DHT22;20046;50.746;7.072;2023-07-24T14:24:17;21.60;99.90
33717;DHT22;20046;50.746;7.072;2023-07-24T14:26:42;21.50;99.90
33717;DHT22;20046;50.746;7.072;2023-07-24T14:29:10;21.60;99.90
33717;DHT22;20046;50.746;7.072;2023-07-24T14:31:36;21.80;99.90
33717;DHT22;20046;50.746;7.072;2023-07-24T14:34:02;22.10;99.90
33717;DHT22;20046;50.746;7.072;2023-07-24T14:36:27;22.30;99.90
33717;DHT22;20046;50.746;7.072;2023-07-24T14:39:02;22.60;99.90
33717;DHT22;20046;50.746;7.072;2023-07-24T14:41:27;22.80;99.90
33717;DHT22;20046;50.746;7.072;2023-07-24T14:43:53;23.00;99.90
33717;DHT22;20046;50.746;7.072;2023-07-24T14:46:18;23.20;99.90
33717;DHT22;20046;50.746;7.072;2023-07-24T14:48:44;23.00;99.90
33717;DHT22;20046;50.746;7.072;2023-07-24T14:51:09;22.90;99.90
33717;DHT22;20046;50.746;7.072;2023-07-24T14:53:35;22.80;99.90
33717;DHT22;20046;50.746;7.072;2023-07-24T14:56:02;22.80;99.90
33717;DHT22;20046;50.746;7.072;2023-07-24T14:58:28;22.80;99.90
33717;DHT22;20046;50.746;7.072;2023-07-24T15:00:54;22.90;99.90
33717;DHT22;20046;50.746;7.072;2023-07-24T15:03:19;23.00;99.90
33717;DHT22;20046;50.746;7.072;2023-07-24T15:05:45;22.90;99.90
33717;DHT22;20046;50.746;7.072;2023-07-24T15:08:11;22.90;99.90
33717;DHT22;20046;50.746;7.072;2023-07-24T15:10:37;22.90;99.90
33717;DHT22;20046;50.746;7.072;2023-07-24T15:13:02;22.70;99.90
33717;DHT22;20046;50.746;7.072;2023-07-24T15:15:28;22.60;99.90
33717;DHT22;20046;50.746;7.072;2023-07-24T15:17:53;22.40;99.90
33717;DHT22;20046;50.746;7.072;2023-07-24T15:20:19;22.40;99.90
33717;DHT22;20046;50.746;7.072;2023-07-24T15:22:44;22.30;99.90
33717;DHT22;20046;50.746;7.072;2023-07-24T15:25:10;22.40;99.90
33717;DHT22;20046;50.746;7.072;2023-07-24T15:27:36;22.40;99.90